sensor_id;sensor_type;location;lat;lon;timestamp;P1;durP1;ratioP1;P2;durP2;ratioP2
11135;SDS011;5622;50.840;4.948;2023-04-28T00:00:49;19.97;;;14.67;;
11135;SDS011;5622;50.840;4.948;2023-04-28T00:03:16;29.20;;;18.17;;
11135;SDS011;5622;50.840;4.948;2023-04-28T00:05:44;25.03;;;17.17;;
11135;SDS011;5622;50.840;4.948;2023-04-28T00:08:13;23.80;;;16.70;;
11135;SDS011;5622;50.840;4.948;2023-04-28T00:10:41;24.50;;;17.07;;
11135;SDS011;5622;50.840;4.948;2023-04-28T00:13:08;26.63;;;18.70;;
11135;SDS011;5622;50.840;4.948;2023-04-28T00:15:35;27.83;;;18.57;;
11135;SDS011;5622;50.840;4.948;2023-04-28T00:18:04;28.93;;;19.80;;
11135;SDS011;5622;50.840;4.948;2023-04-28T00:20:32;29.37;;;20.00;;
11135;SDS011;5622;50.840;4.948;2023-04-28T00:23:00;29.43;;;19.10;;
11135;SDS011;5622;50.840;4.948;2023-04-28T00:25:27;30.50;;;20.37;;
11135;SDS011;5622;50.840;4.948;2023-04-28T00:27:54;34.43;;;21.20;;
11135;SDS011;5622;50.840;4.948;2023-04-28T00:30:21;31.37;;;21.90;;
11135;SDS011;5622;50.840;4.948;2023-04-28T00:32:49;31.40;;;20.97;;
11135;SDS011;5622;50.840;4.948;2023-04-28T00:35:18;35.03;;;22.37;;
11135;SDS011;5622;50.840;4.948;2023-04-28T00:37:45;34.23;;;21.50;;
11135;SDS011;5622;50.840;4.948;2023-04-28T00:40:12;33.13;;;21.90;;
11135;SDS011;5622;50.840;4.948;2023-04-28T00:42:40;32.97;;;21.43;;
11135;SDS011;5622;50.840;4.948;2023-04-28T00:45:08;31.57;;;20.17;;
11135;SDS011;5622;50.840;4.948;2023-04-28T00:47:36;33.57;;;21.87;;
11135;SDS011;5622;50.840;4.948;2023-04-28T00:50:03;29.47;;;19.90;;
11135;SDS011;5622;50.840;4.948;2023-04-28T00:52:32;29.83;;;20.87;;
11135;SDS011;5622;50.840;4.948;2023-04-28T00:55:00;28.60;;;20.17;;
11135;SDS011;5622;50.840;4.948;2023-04-28T00:57:28;31.40;;;21.70;;
11135;SDS011;5622;50.840;4.948;2023-04-28T00:59:56;30.33;;;20.63;;
11135;SDS011;5622;50.840;4.948;2023-04-28T01:02:23;29.20;;;20.27;;
11135;SDS011;5622;50.840;4.948;2023-04-28T01:04:53;33.43;;;22.93;;
11135;SDS011;5622;50.840;4.948;2023-04-28T01:07:22;36.57;;;22.87;;
11135;SDS011;5622;50.840;4.948;2023-04-28T01:09:50;34.43;;;23.40;;
11135;SDS011;5622;50.840;4.948;2023-04-28T01:12:17;32.87;;;23.30;;
11135;SDS011;5622;50.840;4.948;2023-04-28T01:14:44;36.17;;;24.07;;
11135;SDS011;5622;50.840;4.948;2023-04-28T01:17:12;30.10;;;21.10;;
11135;SDS011;5622;50.840;4.948;2023-04-28T01:19:39;31.33;;;21.50;;
11135;SDS011;5622;50.840;4.948;2023-04-28T01:22:07;34.93;;;22.83;;
11135;SDS011;5622;50.840;4.948;2023-04-28T01:24:39;35.60;;;23.40;;
11135;SDS011;5622;50.840;4.948;2023-04-28T01:27:06;36.00;;;23.60;;
11135;SDS011;5622;50.840;4.948;2023-04-28T01:29:33;36.10;;;24.47;;
11135;SDS011;5622;50.840;4.948;2023-04-28T01:32:00;30.03;;;21.37;;
11135;SDS011;5622;50.840;4.948;2023-04-28T01:34:27;31.87;;;21.70;;
11135;SDS011;5622;50.840;4.948;2023-04-28T01:36:55;36.30;;;23.07;;
11135;SDS011;5622;50.840;4.948;2023-04-28T01:39:22;34.27;;;22.87;;
11135;SDS011;5622;50.840;4.948;2023-04-28T01:41:53;33.43;;;23.60;;
11135;SDS011;5622;50.840;4.948;2023-04-28T01:44:20;31.20;;;21.87;;
11135;SDS011;5622;50.840;4.948;2023-04-28T01:46:47;35.80;;;23.37;;
11135;SDS011;5622;50.840;4.948;2023-04-28T01:49:14;37.33;;;24.10;;
11135;SDS011;5622;50.840;4.948;2023-04-28T01:51:41;32.47;;;22.03;;
11135;SDS011;5622;50.840;4.948;2023-04-28T01:54:09;32.53;;;22.70;;
11135;SDS011;5622;50.840;4.948;2023-04-28T01:56:36;35.57;;;22.90;;
11135;SDS011;5622;50.840;4.948;2023-04-28T01:59:05;37.13;;;23.73;;
11135;SDS011;5622;50.840;4.948;2023-04-28T02:01:32;35.13;;;24.23;;
11135;SDS011;5622;50.840;4.948;2023-04-28T02:03:59;33.20;;;21.43;;
11135;SDS011;5622;50.840;4.948;2023-04-28T02:06:28;32.20;;;22.50;;
11135;SDS011;5622;50.840;4.948;2023-04-28T02:08:55;33.40;;;22.33;;
11135;SDS011;5622;50.840;4.948;2023-04-28T02:11:22;36.23;;;22.80;;
11135;SDS011;5622;50.840;4.948;2023-04-28T02:13:49;38.50;;;21.57;;
11135;SDS011;5622;50.840;4.948;2023-04-28T02:16:18;29.00;;;20.10;;
11135;SDS011;5622;50.840;4.948;2023-04-28T02:18:45;29.87;;;20.07;;
11135;SDS011;5622;50.840;4.948;2023-04-28T02:21:12;35.47;;;20.37;;
11135;SDS011;5622;50.840;4.948;2023-04-28T02:23:39;29.30;;;20.00;;
11135;SDS011;5622;50.840;4.948;2023-04-28T02:26:06;27.53;;;18.50;;
11135;SDS011;5622;50.840;4.948;2023-04-28T02:28:33;29.47;;;18.70;;
11135;SDS011;5622;50.840;4.948;2023-04-28T02:31:04;30.20;;;19.73;;
11135;SDS011;5622;50.840;4.948;2023-04-28T02:33:34;27.50;;;19.07;;
11135;SDS011;5622;50.840;4.948;2023-04-28T02:36:01;27.00;;;17.83;;
11135;SDS011;5622;50.840;4.948;2023-04-28T02:38:30;25.93;;;18.63;;
11135;SDS011;5622;50.840;4.948;2023-04-28T02:40:58;30.07;;;18.63;;
11135;SDS011;5622;50.840;4.948;2023-04-28T04:30:32;29.57;;;21.40;;
11135;SDS011;5622;50.840;4.948;2023-04-28T04:33:03;30.00;;;20.87;;
11135;SDS011;5622;50.840;4.948;2023-04-28T04:35:33;28.43;;;20.17;;
11135;SDS011;5622;50.840;4.948;2023-04-28T04:38:00;25.00;;;19.17;;
11135;SDS011;5622;50.840;4.948;2023-04-28T04:40:28;30.20;;;21.97;;
11135;SDS011;5622;50.840;4.948;2023-04-28T04:42:55;33.63;;;21.80;;
11135;SDS011;5622;50.840;4.948;2023-04-28T04:45:22;30.63;;;21.77;;
11135;SDS011;5622;50.840;4.948;2023-04-28T04:47:51;32.53;;;21.83;;
11135;SDS011;5622;50.840;4.948;2023-04-28T04:50:18;30.03;;;21.33;;
11135;SDS011;5622;50.840;4.948;2023-04-28T04:52:45;31.20;;;21.90;;
11135;SDS011;5622;50.840;4.948;2023-04-28T04:55:13;28.77;;;21.63;;
11135;SDS011;5622;50.840;4.948;2023-04-28T04:57:40;30.83;;;22.23;;
11135;SDS011;5622;50.840;4.948;2023-04-28T05:00:07;33.10;;;22.60;;
11135;SDS011;5622;50.840;4.948;2023-04-28T05:02:35;31.67;;;22.73;;
11135;SDS011;5622;50.840;4.948;2023-04-28T05:05:04;35.60;;;22.17;;
11135;SDS011;5622;50.840;4.948;2023-04-28T05:07:32;30.67;;;22.20;;
11135;SDS011;5622;50.840;4.948;2023-04-28T05:09:59;32.93;;;21.27;;
11135;SDS011;5622;50.840;4.948;2023-04-28T05:12:26;32.67;;;21.47;;
11135;SDS011;5622;50.840;4.948;2023-04-28T05:14:53;31.03;;;21.93;;
11135;SDS011;5622;50.840;4.948;2023-04-28T05:17:20;32.30;;;22.63;;
11135;SDS011;5622;50.840;4.948;2023-04-28T05:19:47;32.37;;;23.37;;
11135;SDS011;5622;50.840;4.948;2023-04-28T05:22:18;33.60;;;23.83;;
11135;SDS011;5622;50.840;4.948;2023-04-28T05:24:51;37.13;;;22.73;;
11135;SDS011;5622;50.840;4.948;2023-04-28T05:27:18;34.27;;;23.60;;
11135;SDS011;5622;50.840;4.948;2023-04-28T05:29:45;29.90;;;22.80;;
11135;SDS011;5622;50.840;4.948;2023-04-28T05:32:13;35.63;;;23.23;;
11135;SDS011;5622;50.840;4.948;2023-04-28T05:34:40;34.93;;;24.40;;
11135;SDS011;5622;50.840;4.948;2023-04-28T05:37:07;37.73;;;23.20;;
11135;SDS011;5622;50.840;4.948;2023-04-28T05:39:35;31.30;;;21.83;;
11135;SDS011;5622;50.840;4.948;2023-04-28T05:42:02;34.70;;;23.60;;
11135;SDS011;5622;50.840;4.948;2023-04-28T05:44:30;36.17;;;23.67;;
11135;SDS011;5622;50.840;4.948;2023-04-28T05:46:57;37.47;;;23.90;;
11135;SDS011;5622;50.840;4.948;2023-04-28T05:49:24;34.17;;;23.53;;
11135;SDS011;5622;50.840;4.948;2023-04-28T05:51:51;31.83;;;23.17;;
11135;SDS011;5622;50.840;4.948;2023-04-28T05:54:18;37.17;;;24.80;;
11135;SDS011;5622;50.840;4.948;2023-04-28T05:56:47;37.07;;;24.63;;
11135;SDS011;5622;50.840;4.948;2023-04-28T05:59:14;37.77;;;24.80;;
11135;SDS011;5622;50.840;4.948;2023-04-28T06:01:42;35.20;;;22.90;;
11135;SDS011;5622;50.840;4.948;2023-04-28T06:04:09;38.50;;;25.20;;
11135;SDS011;5622;50.840;4.948;2023-04-28T06:06:36;33.83;;;23.87;;
11135;SDS011;5622;50.840;4.948;2023-04-28T06:09:03;35.47;;;24.47;;
11135;SDS011;5622;50.840;4.948;2023-04-28T06:11:31;38.23;;;25.40;;
11135;SDS011;5622;50.840;4.948;2023-04-28T06:13:59;40.23;;;26.87;;
11135;SDS011;5622;50.840;4.948;2023-04-28T06:16:27;36.50;;;25.57;;
11135;SDS011;5622;50.840;4.948;2023-04-28T06:18:54;33.43;;;24.40;;
11135;SDS011;5622;50.840;4.948;2023-04-28T06:21:21;32.77;;;23.63;;
11135;SDS011;5622;50.840;4.948;2023-04-28T06:23:49;41.13;;;25.57;;
11135;SDS011;5622;50.840;4.948;2023-04-28T06:26:16;34.33;;;24.90;;
11135;SDS011;5622;50.840;4.948;2023-04-28T06:28:43;40.00;;;24.73;;
11135;SDS011;5622;50.840;4.948;2023-04-28T06:31:11;40.90;;;25.90;;
11135;SDS011;5622;50.840;4.948;2023-04-28T06:33:39;38.30;;;24.37;;
11135;SDS011;5622;50.840;4.948;2023-04-28T06:36:06;30.77;;;22.50;;
11135;SDS011;5622;50.840;4.948;2023-04-28T06:38:33;41.73;;;27.80;;
11135;SDS011;5622;50.840;4.948;2023-04-28T06:41:01;40.17;;;26.47;;
11135;SDS011;5622;50.840;4.948;2023-04-28T06:43:28;40.90;;;27.60;;
11135;SDS011;5622;50.840;4.948;2023-04-28T06:45:56;37.13;;;24.97;;
11135;SDS011;5622;50.840;4.948;2023-04-28T06:48:25;41.33;;;26.73;;
11135;SDS011;5622;50.840;4.948;2023-04-28T06:50:52;38.30;;;24.80;;
11135;SDS011;5622;50.840;4.948;2023-04-28T06:53:19;38.67;;;26.43;;
11135;SDS011;5622;50.840;4.948;2023-04-28T06:55:46;47.37;;;28.80;;
11135;SDS011;5622;50.840;4.948;2023-04-28T06:58:13;42.90;;;28.83;;
11135;SDS011;5622;50.840;4.948;2023-04-28T07:00:40;42.77;;;27.17;;
11135;SDS011;5622;50.840;4.948;2023-04-28T07:03:08;38.70;;;27.27;;
11135;SDS011;5622;50.840;4.948;2023-04-28T07:05:36;44.87;;;29.90;;
11135;SDS011;5622;50.840;4.948;2023-04-28T07:08:04;42.03;;;26.00;;
11135;SDS011;5622;50.840;4.948;2023-04-28T07:10:31;36.13;;;23.70;;
11135;SDS011;5622;50.840;4.948;2023-04-28T07:12:58;34.97;;;20.53;;
11135;SDS011;5622;50.840;4.948;2023-04-28T07:15:26;28.00;;;18.53;;
11135;SDS011;5622;50.840;4.948;2023-04-28T07:17:53;35.63;;;25.70;;
11135;SDS011;5622;50.840;4.948;2023-04-28T07:20:21;35.83;;;20.23;;
11135;SDS011;5622;50.840;4.948;2023-04-28T07:22:49;31.53;;;18.80;;
11135;SDS011;5622;50.840;4.948;2023-04-28T07:25:16;27.33;;;17.00;;
11135;SDS011;5622;50.840;4.948;2023-04-28T07:27:44;27.77;;;17.33;;
11135;SDS011;5622;50.840;4.948;2023-04-28T07:30:12;27.90;;;17.47;;
11135;SDS011;5622;50.840;4.948;2023-04-28T07:32:39;26.53;;;17.07;;
11135;SDS011;5622;50.840;4.948;2023-04-28T07:35:08;21.37;;;14.57;;
11135;SDS011;5622;50.840;4.948;2023-04-28T07:37:35;18.73;;;12.87;;
11135;SDS011;5622;50.840;4.948;2023-04-28T07:40:05;17.37;;;12.07;;
11135;SDS011;5622;50.840;4.948;2023-04-28T07:42:32;15.13;;;11.13;;
11135;SDS011;5622;50.840;4.948;2023-04-28T07:44:59;15.63;;;11.43;;
11135;SDS011;5622;50.840;4.948;2023-04-28T07:47:27;12.97;;;10.13;;
11135;SDS011;5622;50.840;4.948;2023-04-28T07:49:54;19.53;;;11.57;;
11135;SDS011;5622;50.840;4.948;2023-04-28T07:52:21;16.07;;;10.60;;
11135;SDS011;5622;50.840;4.948;2023-04-28T07:54:48;15.63;;;10.50;;
11135;SDS011;5622;50.840;4.948;2023-04-28T07:57:17;15.67;;;10.53;;
11135;SDS011;5622;50.840;4.948;2023-04-28T07:59:44;15.93;;;9.60;;
11135;SDS011;5622;50.840;4.948;2023-04-28T08:02:11;11.87;;;9.57;;
11135;SDS011;5622;50.840;4.948;2023-04-28T08:04:39;13.10;;;9.30;;
11135;SDS011;5622;50.840;4.948;2023-04-28T08:07:07;10.03;;;8.73;;
11135;SDS011;5622;50.840;4.948;2023-04-28T08:09:34;13.47;;;8.83;;
11135;SDS011;5622;50.840;4.948;2023-04-28T08:12:02;11.27;;;8.80;;
11135;SDS011;5622;50.840;4.948;2023-04-28T08:14:30;10.73;;;7.83;;
11135;SDS011;5622;50.840;4.948;2023-04-28T08:16:58;12.33;;;8.80;;
11135;SDS011;5622;50.840;4.948;2023-04-28T08:19:25;11.27;;;8.27;;
11135;SDS011;5622;50.840;4.948;2023-04-28T08:21:52;10.30;;;8.30;;
11135;SDS011;5622;50.840;4.948;2023-04-28T08:24:19;10.53;;;7.93;;
11135;SDS011;5622;50.840;4.948;2023-04-28T08:26:46;14.23;;;8.77;;
11135;SDS011;5622;50.840;4.948;2023-04-28T08:29:13;12.73;;;8.97;;
11135;SDS011;5622;50.840;4.948;2023-04-28T08:31:42;11.70;;;8.57;;
11135;SDS011;5622;50.840;4.948;2023-04-28T08:34:09;11.27;;;8.83;;
11135;SDS011;5622;50.840;4.948;2023-04-28T08:36:36;13.60;;;9.70;;
11135;SDS011;5622;50.840;4.948;2023-04-28T08:39:03;10.53;;;7.93;;
11135;SDS011;5622;50.840;4.948;2023-04-28T08:41:32;9.00;;;7.50;;
11135;SDS011;5622;50.840;4.948;2023-04-28T08:44:05;10.07;;;7.43;;
11135;SDS011;5622;50.840;4.948;2023-04-28T08:46:34;7.83;;;6.93;;
11135;SDS011;5622;50.840;4.948;2023-04-28T08:49:02;9.97;;;6.30;;
11135;SDS011;5622;50.840;4.948;2023-04-28T08:51:33;7.93;;;6.87;;
11135;SDS011;5622;50.840;4.948;2023-04-28T08:54:04;8.40;;;5.93;;
11135;SDS011;5622;50.840;4.948;2023-04-28T08:56:32;7.87;;;6.33;;
11135;SDS011;5622;50.840;4.948;2023-04-28T08:59:01;7.00;;;6.03;;
11135;SDS011;5622;50.840;4.948;2023-04-28T09:01:29;6.10;;;5.47;;
11135;SDS011;5622;50.840;4.948;2023-04-28T09:03:56;7.73;;;6.63;;
11135;SDS011;5622;50.840;4.948;2023-04-28T09:06:31;6.97;;;5.87;;
11135;SDS011;5622;50.840;4.948;2023-04-28T09:11:52;7.57;;;5.47;;
11135;SDS011;5622;50.840;4.948;2023-04-28T09:14:20;6.87;;;6.13;;
11135;SDS011;5622;50.840;4.948;2023-04-28T09:16:48;8.43;;;6.57;;
11135;SDS011;5622;50.840;4.948;2023-04-28T09:19:15;6.90;;;6.20;;
11135;SDS011;5622;50.840;4.948;2023-04-28T09:21:48;6.97;;;5.83;;
11135;SDS011;5622;50.840;4.948;2023-04-28T09:24:27;6.87;;;5.90;;
11135;SDS011;5622;50.840;4.948;2023-04-28T09:26:56;8.23;;;6.67;;
11135;SDS011;5622;50.840;4.948;2023-04-28T09:29:23;7.07;;;5.90;;
11135;SDS011;5622;50.840;4.948;2023-04-28T09:31:50;8.80;;;6.77;;
11135;SDS011;5622;50.840;4.948;2023-04-28T09:34:18;10.33;;;8.00;;
11135;SDS011;5622;50.840;4.948;2023-04-28T09:36:45;10.87;;;7.77;;
11135;SDS011;5622;50.840;4.948;2023-04-28T09:39:14;9.57;;;7.37;;
11135;SDS011;5622;50.840;4.948;2023-04-28T09:41:55;10.63;;;7.97;;
11135;SDS011;5622;50.840;4.948;2023-04-28T09:44:27;9.47;;;8.03;;
11135;SDS011;5622;50.840;4.948;2023-04-28T09:46:54;10.40;;;8.57;;
11135;SDS011;5622;50.840;4.948;2023-04-28T09:49:23;10.63;;;8.53;;
11135;SDS011;5622;50.840;4.948;2023-04-28T09:52:12;11.90;;;8.80;;
11135;SDS011;5622;50.840;4.948;2023-04-28T09:54:39;11.23;;;8.13;;
11135;SDS011;5622;50.840;4.948;2023-04-28T09:57:06;8.97;;;7.53;;
11135;SDS011;5622;50.840;4.948;2023-04-28T09:59:34;8.30;;;6.87;;
11135;SDS011;5622;50.840;4.948;2023-04-28T10:02:01;8.00;;;7.10;;
11135;SDS011;5622;50.840;4.948;2023-04-28T10:04:31;10.03;;;7.67;;
11135;SDS011;5622;50.840;4.948;2023-04-28T10:07:00;15.37;;;8.10;;
11135;SDS011;5622;50.840;4.948;2023-04-28T10:09:28;9.27;;;7.33;;
11135;SDS011;5622;50.840;4.948;2023-04-28T10:11:57;13.17;;;7.90;;
11135;SDS011;5622;50.840;4.948;2023-04-28T10:14:25;10.93;;;8.03;;
11135;SDS011;5622;50.840;4.948;2023-04-28T10:16:55;14.47;;;7.67;;
11135;SDS011;5622;50.840;4.948;2023-04-28T10:19:27;8.30;;;6.00;;
11135;SDS011;5622;50.840;4.948;2023-04-28T10:21:58;4.20;;;3.87;;
11135;SDS011;5622;50.840;4.948;2023-04-28T10:24:43;5.63;;;3.83;;
11135;SDS011;5622;50.840;4.948;2023-04-28T10:27:27;6.30;;;4.67;;
11135;SDS011;5622;50.840;4.948;2023-04-28T10:30:08;5.77;;;2.90;;
11135;SDS011;5622;50.840;4.948;2023-04-28T10:32:36;3.30;;;2.77;;
11135;SDS011;5622;50.840;4.948;2023-04-28T10:38:13;5.73;;;4.37;;
11135;SDS011;5622;50.840;4.948;2023-04-28T10:40:43;3.90;;;2.90;;
11135;SDS011;5622;50.840;4.948;2023-04-28T10:43:11;4.73;;;3.00;;
11135;SDS011;5622;50.840;4.948;2023-04-28T10:45:58;3.37;;;2.27;;
11135;SDS011;5622;50.840;4.948;2023-04-28T10:54:16;2.80;;;1.80;;
11135;SDS011;5622;50.840;4.948;2023-04-28T10:59:45;1.40;;;1.40;;
11135;SDS011;5622;50.840;4.948;2023-04-28T11:05:16;1.73;;;1.63;;
11135;SDS011;5622;50.840;4.948;2023-04-28T11:11:13;1.83;;;1.73;;
11135;SDS011;5622;50.840;4.948;2023-04-28T11:13:50;1.90;;;1.80;;
11135;SDS011;5622;50.840;4.948;2023-04-28T11:16:19;6.23;;;2.00;;
11135;SDS011;5622;50.840;4.948;2023-04-28T11:18:51;1.70;;;1.60;;
11135;SDS011;5622;50.840;4.948;2023-04-28T11:21:24;1.70;;;1.60;;
11135;SDS011;5622;50.840;4.948;2023-04-28T11:23:53;1.93;;;1.50;;
11135;SDS011;5622;50.840;4.948;2023-04-28T11:26:20;2.07;;;1.70;;
11135;SDS011;5622;50.840;4.948;2023-04-28T11:28:51;1.77;;;1.67;;
11135;SDS011;5622;50.840;4.948;2023-04-28T11:31:19;2.20;;;1.60;;
11135;SDS011;5622;50.840;4.948;2023-04-28T11:33:58;1.70;;;1.60;;
11135;SDS011;5622;50.840;4.948;2023-04-28T11:36:29;2.43;;;1.93;;
11135;SDS011;5622;50.840;4.948;2023-04-28T11:38:59;1.83;;;1.73;;
11135;SDS011;5622;50.840;4.948;2023-04-28T11:41:29;3.37;;;2.03;;
11135;SDS011;5622;50.840;4.948;2023-04-28T11:43:57;3.77;;;2.20;;
11135;SDS011;5622;50.840;4.948;2023-04-28T11:46:25;2.53;;;2.00;;
11135;SDS011;5622;50.840;4.948;2023-04-28T11:48:59;3.13;;;1.80;;
11135;SDS011;5622;50.840;4.948;2023-04-28T11:51:28;1.80;;;1.70;;
11135;SDS011;5622;50.840;4.948;2023-04-28T11:53:57;3.83;;;1.40;;
11135;SDS011;5622;50.840;4.948;2023-04-28T11:56:24;2.90;;;1.47;;
11135;SDS011;5622;50.840;4.948;2023-04-28T11:59:03;1.50;;;1.40;;
11135;SDS011;5622;50.840;4.948;2023-04-28T12:01:32;1.73;;;1.47;;
11135;SDS011;5622;50.840;4.948;2023-04-28T12:04:01;1.60;;;1.50;;
11135;SDS011;5622;50.840;4.948;2023-04-28T12:06:29;1.80;;;1.70;;
11135;SDS011;5622;50.840;4.948;2023-04-28T12:08:56;3.50;;;1.63;;
11135;SDS011;5622;50.840;4.948;2023-04-28T12:11:28;2.70;;;2.07;;
11135;SDS011;5622;50.840;4.948;2023-04-28T12:14:04;1.67;;;1.57;;
11135;SDS011;5622;50.840;4.948;2023-04-28T12:16:36;4.37;;;1.60;;
11135;SDS011;5622;50.840;4.948;2023-04-28T12:19:12;2.20;;;1.30;;
11135;SDS011;5622;50.840;4.948;2023-04-28T12:21:39;2.43;;;1.40;;
11135;SDS011;5622;50.840;4.948;2023-04-28T12:24:14;2.00;;;1.53;;
11135;SDS011;5622;50.840;4.948;2023-04-28T12:26:42;1.60;;;1.50;;
11135;SDS011;5622;50.840;4.948;2023-04-28T12:29:11;1.93;;;1.73;;
11135;SDS011;5622;50.840;4.948;2023-04-28T12:32:02;2.00;;;1.70;;
11135;SDS011;5622;50.840;4.948;2023-04-28T12:34:30;2.40;;;2.20;;
11135;SDS011;5622;50.840;4.948;2023-04-28T12:36:57;3.07;;;2.77;;
11135;SDS011;5622;50.840;4.948;2023-04-28T12:39:25;3.70;;;2.90;;
11135;SDS011;5622;50.840;4.948;2023-04-28T12:41:52;3.80;;;2.73;;
11135;SDS011;5622;50.840;4.948;2023-04-28T12:44:21;2.80;;;2.60;;
11135;SDS011;5622;50.840;4.948;2023-04-28T12:46:48;3.53;;;3.23;;
11135;SDS011;5622;50.840;4.948;2023-04-28T12:49:16;3.90;;;3.50;;
11135;SDS011;5622;50.840;4.948;2023-04-28T12:51:43;4.90;;;3.63;;
11135;SDS011;5622;50.840;4.948;2023-04-28T12:54:10;6.23;;;4.07;;
11135;SDS011;5622;50.840;4.948;2023-04-28T12:56:38;4.20;;;3.80;;
11135;SDS011;5622;50.840;4.948;2023-04-28T12:59:05;4.23;;;3.83;;
11135;SDS011;5622;50.840;4.948;2023-04-28T13:01:34;4.80;;;4.00;;
11135;SDS011;5622;50.840;4.948;2023-04-28T13:04:01;6.20;;;4.47;;
11135;SDS011;5622;50.840;4.948;2023-04-28T13:06:28;4.97;;;3.57;;
11135;SDS011;5622;50.840;4.948;2023-04-28T13:08:56;5.70;;;3.90;;
11135;SDS011;5622;50.840;4.948;2023-04-28T13:11:23;4.20;;;3.80;;
11135;SDS011;5622;50.840;4.948;2023-04-28T13:13:52;2.90;;;2.60;;
11135;SDS011;5622;50.840;4.948;2023-04-28T13:16:21;3.20;;;2.80;;
11135;SDS011;5622;50.840;4.948;2023-04-28T13:18:54;3.30;;;2.47;;
11135;SDS011;5622;50.840;4.948;2023-04-28T13:21:23;2.60;;;2.40;;
11135;SDS011;5622;50.840;4.948;2023-04-28T13:23:51;3.93;;;2.67;;
11135;SDS011;5622;50.840;4.948;2023-04-28T13:26:18;2.20;;;2.00;;
11135;SDS011;5622;50.840;4.948;2023-04-28T13:28:46;2.33;;;2.00;;
11135;SDS011;5622;50.840;4.948;2023-04-28T13:31:13;3.00;;;2.10;;
11135;SDS011;5622;50.840;4.948;2023-04-28T13:33:40;1.80;;;1.70;;
11135;SDS011;5622;50.840;4.948;2023-04-28T13:36:09;2.37;;;2.17;;
11135;SDS011;5622;50.840;4.948;2023-04-28T13:38:37;2.03;;;1.83;;
11135;SDS011;5622;50.840;4.948;2023-04-28T13:41:04;2.80;;;2.07;;
11135;SDS011;5622;50.840;4.948;2023-04-28T13:43:31;2.93;;;2.30;;
11135;SDS011;5622;50.840;4.948;2023-04-28T13:45:58;4.57;;;3.80;;
11135;SDS011;5622;50.840;4.948;2023-04-28T13:48:26;2.20;;;2.00;;
11135;SDS011;5622;50.840;4.948;2023-04-28T13:50:57;4.40;;;2.20;;
11135;SDS011;5622;50.840;4.948;2023-04-28T13:53:25;3.13;;;1.93;;
11135;SDS011;5622;50.840;4.948;2023-04-28T13:55:52;1.70;;;1.60;;
11135;SDS011;5622;50.840;4.948;2023-04-28T13:58:21;1.67;;;1.57;;
11135;SDS011;5622;50.840;4.948;2023-04-28T14:00:49;1.60;;;1.50;;
11135;SDS011;5622;50.840;4.948;2023-04-28T14:03:16;1.97;;;1.60;;
11135;SDS011;5622;50.840;4.948;2023-04-28T14:05:43;2.57;;;1.60;;
11135;SDS011;5622;50.840;4.948;2023-04-28T14:08:11;1.67;;;1.57;;
11135;SDS011;5622;50.840;4.948;2023-04-28T14:10:43;2.37;;;1.70;;
11135;SDS011;5622;50.840;4.948;2023-04-28T14:13:10;2.93;;;1.83;;
11135;SDS011;5622;50.840;4.948;2023-04-28T14:15:37;2.00;;;1.80;;
11135;SDS011;5622;50.840;4.948;2023-04-28T14:18:10;1.90;;;1.70;;
11135;SDS011;5622;50.840;4.948;2023-04-28T14:20:38;2.00;;;1.80;;
11135;SDS011;5622;50.840;4.948;2023-04-28T14:23:05;1.60;;;1.50;;
11135;SDS011;5622;50.840;4.948;2023-04-28T14:25:32;1.60;;;1.50;;
11135;SDS011;5622;50.840;4.948;2023-04-28T14:28:01;2.80;;;1.50;;
11135;SDS011;5622;50.840;4.948;2023-04-28T14:30:28;1.43;;;1.33;;
11135;SDS011;5622;50.840;4.948;2023-04-28T14:32:57;3.60;;;1.57;;
11135;SDS011;5622;50.840;4.948;2023-04-28T14:35:24;1.90;;;1.70;;
11135;SDS011;5622;50.840;4.948;2023-04-28T14:37:52;1.93;;;1.50;;
11135;SDS011;5622;50.840;4.948;2023-04-28T14:40:19;1.77;;;1.63;;
11135;SDS011;5622;50.840;4.948;2023-04-28T14:42:46;2.00;;;1.90;;
11135;SDS011;5622;50.840;4.948;2023-04-28T14:45:16;1.60;;;1.50;;
11135;SDS011;5622;50.840;4.948;2023-04-28T14:47:43;1.30;;;1.30;;
11135;SDS011;5622;50.840;4.948;2023-04-28T14:50:10;1.53;;;1.43;;
11135;SDS011;5622;50.840;4.948;2023-04-28T14:52:43;1.40;;;1.30;;
11135;SDS011;5622;50.840;4.948;2023-04-28T14:55:19;1.53;;;1.43;;
11135;SDS011;5622;50.840;4.948;2023-04-28T15:03:46;3.97;;;1.60;;
11135;SDS011;5622;50.840;4.948;2023-04-28T15:06:15;2.97;;;1.87;;
11135;SDS011;5622;50.840;4.948;2023-04-28T15:08:44;1.57;;;1.43;;
11135;SDS011;5622;50.840;4.948;2023-04-28T15:11:11;1.40;;;1.30;;
11135;SDS011;5622;50.840;4.948;2023-04-28T15:13:39;1.53;;;1.43;;
11135;SDS011;5622;50.840;4.948;2023-04-28T15:16:12;1.67;;;1.40;;
11135;SDS011;5622;50.840;4.948;2023-04-28T15:18:47;1.40;;;1.30;;
11135;SDS011;5622;50.840;4.948;2023-04-28T15:21:15;1.80;;;1.67;;
11135;SDS011;5622;50.840;4.948;2023-04-28T15:23:45;1.93;;;1.80;;
11135;SDS011;5622;50.840;4.948;2023-04-28T15:26:14;3.10;;;1.90;;
11135;SDS011;5622;50.840;4.948;2023-04-28T15:28:43;3.37;;;2.20;;
11135;SDS011;5622;50.840;4.948;2023-04-28T15:31:10;3.87;;;1.60;;
11135;SDS011;5622;50.840;4.948;2023-04-28T15:33:40;7.17;;;2.17;;
11135;SDS011;5622;50.840;4.948;2023-04-28T15:36:08;1.70;;;1.60;;
11135;SDS011;5622;50.840;4.948;2023-04-28T15:38:36;1.90;;;1.70;;
11135;SDS011;5622;50.840;4.948;2023-04-28T15:41:04;2.00;;;1.60;;
11135;SDS011;5622;50.840;4.948;2023-04-28T15:43:32;2.20;;;1.47;;
11135;SDS011;5622;50.840;4.948;2023-04-28T15:46:07;1.47;;;1.37;;
11135;SDS011;5622;50.840;4.948;2023-04-28T15:48:35;1.70;;;1.60;;
11135;SDS011;5622;50.840;4.948;2023-04-28T15:51:03;2.07;;;1.87;;
11135;SDS011;5622;50.840;4.948;2023-04-28T15:53:32;2.03;;;1.63;;
11135;SDS011;5622;50.840;4.948;2023-04-28T15:55:59;1.80;;;1.70;;
11135;SDS011;5622;50.840;4.948;2023-04-28T15:58:28;3.27;;;1.30;;
11135;SDS011;5622;50.840;4.948;2023-04-28T16:00:56;1.40;;;1.30;;
11135;SDS011;5622;50.840;4.948;2023-04-28T16:03:25;4.10;;;1.60;;
11135;SDS011;5622;50.840;4.948;2023-04-28T16:05:58;1.60;;;1.50;;
11135;SDS011;5622;50.840;4.948;2023-04-28T16:08:35;1.93;;;1.63;;
11135;SDS011;5622;50.840;4.948;2023-04-28T16:11:09;1.57;;;1.47;;
11135;SDS011;5622;50.840;4.948;2023-04-28T16:13:41;1.93;;;1.30;;
11135;SDS011;5622;50.840;4.948;2023-04-28T16:16:09;1.50;;;1.43;;
11135;SDS011;5622;50.840;4.948;2023-04-28T16:18:38;2.77;;;1.73;;
11135;SDS011;5622;50.840;4.948;2023-04-28T16:21:05;1.87;;;1.63;;
11135;SDS011;5622;50.840;4.948;2023-04-28T16:23:32;4.30;;;1.50;;
11135;SDS011;5622;50.840;4.948;2023-04-28T16:26:01;1.50;;;1.40;;
11135;SDS011;5622;50.840;4.948;2023-04-28T16:28:29;1.10;;;1.10;;
11135;SDS011;5622;50.840;4.948;2023-04-28T16:30:56;1.53;;;1.43;;
11135;SDS011;5622;50.840;4.948;2023-04-28T16:33:23;1.50;;;1.40;;
11135;SDS011;5622;50.840;4.948;2023-04-28T16:35:59;2.50;;;1.40;;
11135;SDS011;5622;50.840;4.948;2023-04-28T16:38:26;1.40;;;1.30;;
11135;SDS011;5622;50.840;4.948;2023-04-28T16:40:55;1.70;;;1.40;;
11135;SDS011;5622;50.840;4.948;2023-04-28T16:43:22;1.77;;;1.20;;
11135;SDS011;5622;50.840;4.948;2023-04-28T16:45:49;1.60;;;1.50;;
11135;SDS011;5622;50.840;4.948;2023-04-28T16:48:17;1.53;;;1.30;;
11135;SDS011;5622;50.840;4.948;2023-04-28T16:50:45;6.07;;;1.93;;
11135;SDS011;5622;50.840;4.948;2023-04-28T16:53:12;2.63;;;1.30;;
11135;SDS011;5622;50.840;4.948;2023-04-28T16:55:39;1.40;;;1.30;;
11135;SDS011;5622;50.840;4.948;2023-04-28T16:58:08;1.43;;;1.30;;
11135;SDS011;5622;50.840;4.948;2023-04-28T17:00:41;1.87;;;1.20;;
11135;SDS011;5622;50.840;4.948;2023-04-28T17:03:08;2.10;;;1.20;;
11135;SDS011;5622;50.840;4.948;2023-04-28T17:05:35;1.33;;;1.10;;
11135;SDS011;5622;50.840;4.948;2023-04-28T17:08:04;1.20;;;1.00;;
11135;SDS011;5622;50.840;4.948;2023-04-28T17:10:31;0.97;;;0.97;;